CYVM/YVM METAR and TAF weather

Enter ICAO airport designator
Station Type Date Time Source
CYVM METAR 2022/01/23 12:00 UTC NOAA

CYVM 231200Z 21006KT 5SM IC OVC042 M22/M24 A2948 RMK SC8 SLP986


Station Type Date Time Source
CYVM Decoded METAR 2022/01/23 12:00 UTC NOAA

Broughton Island Airport, Canada (CYVM) 67-33N 064-02W
Jan 23, 2022 - 07:00 AM EST / 2022.01.23 1200 UTC
Wind: from the SSW (210 degrees) at 7 MPH (6 KT):0
Visibility: 5 mile(s):0
Sky conditions: overcast
Weather: ice crystals
Temperature: -7 F (-22 C)
Windchill: -22 F (-30 C):2
Dew Point: -11 F (-24 C)
Relative Humidity: 83%
Pressure (altimeter): 29.48 in. Hg (998 hPa)
ob: CYVM 231200Z 21006KT 5SM IC OVC042 M22/M24 A2948 RMK SC8 SLP986
cycle: 12

Station Type Date Time Source
CYVM TAF 2022/01/23 07:42 UTC NOAA

TAF CYVM 230640Z 2307/2319 20008KT P6SM -SN SCT015 OVC050
TEMPO 2307/2314 2SM -SN SCT008 OVC015
FM231400 20005KT P6SM FEW015 SCT050 BKN120
TEMPO 2314/2319 3SM -SN SCT015 BKN050
RMK FCST BASED ON AUTO OBS. NXT FCST BY 231300Z

Example: see airport list